Time;durP1;ratioP1;P1;durP2;ratioP2;P2;SDS_P1;SDS_P2;PMS_P1;PMS_P2;Temp;Humidity;BMP_temperature;BMP_pressure;BME280_temperature;BME280_humidity;BME280_pressure;Samples;Min_cycle;Max_cycle;Signal;HPM_P1;HPM_P2
2021/12/16 00:02:05;;;;;;;11.00;7.22;;;;;;;0.20;62.74;102466.84;2089917;28;20153;-69
2021/12/16 00:05:45;;;;;;;11.75;7.43;;;;;;;1.19;63.15;102630.31;2089671;28;20208;-69
2021/12/16 00:08:03;;;;;;;12.20;7.73;;;;;;;1.16;63.48;102639.16;2090353;28;20172;-69
2021/12/16 00:09:09;;;;;;;10.95;7.40;;;;;;;1.16;62.86;102639.97;2090409;28;20660;-69
2021/12/16 00:29:56;;;;;;;12.27;7.30;;;;;;;1.15;63.45;102654.00;2090245;28;20169;-69
2021/12/16 00:31:16;;;;;;;13.35;7.90;;;;;;;0.49;63.51;102561.75;2090283;28;20594;-69
2021/12/16 00:33:40;;;;;;;12.25;8.07;;;;;;;1.09;64.03;102656.13;2090074;28;20169;-69
2021/12/16 00:34:41;;;;;;;12.90;7.95;;;;;;;1.09;63.83;102661.59;2089540;28;20180;-69
2021/12/16 00:35:45;;;;;;;11.43;7.60;;;;;;;1.00;64.36;102674.53;2089788;28;20176;-69
2021/12/16 00:36:47;;;;;;;11.07;7.43;;;;;;;0.64;64.17;102599.50;2097294;28;20172;-69
2021/12/16 00:37:47;;;;;;;13.57;8.50;;;;;;;1.05;64.21;102662.56;2097080;28;20180;-69
2021/12/16 00:38:48;;;;;;;11.37;8.13;;;;;;;0.86;63.80;102632.88;2090072;28;20180;-69
2021/12/16 00:39:48;;;;;;;12.83;8.63;;;;;;;1.11;63.79;102666.72;2089969;28;20173;-69
2021/12/16 00:40:49;;;;;;;12.87;8.33;;;;;;;0.44;63.81;102554.53;2089878;28;20254;-69
2021/12/16 00:41:55;;;;;;;13.30;8.00;;;;;;;1.10;64.18;102668.69;2089957;28;20226;-69
2021/12/16 00:43:00;;;;;;;12.75;7.25;;;;;;;1.05;64.08;102655.19;2097595;28;20171;-69
2021/12/16 00:44:25;;;;;;;11.82;8.15;;;;;;;1.08;63.96;102664.66;2096168;28;20261;-69
2021/12/16 00:47:01;;;;;;;12.73;8.50;;;;;;;1.09;64.27;102666.28;2089946;28;20168;-69
2021/12/16 00:54:13;;;;;;;13.57;8.13;;;;;;;0.20;63.86;102513.31;2088936;28;20161;-69
2021/12/16 00:55:30;;;;;;;12.75;8.18;;;;;;;0.13;64.16;102513.00;2089967;28;20246;-69
2021/12/16 00:56:32;;;;;;;11.93;7.90;;;;;;;1.15;64.40;102660.28;2089257;28;20162;-69
2021/12/16 00:57:33;;;;;;;12.77;8.38;;;;;;;1.15;64.13;102640.31;2089893;28;20255;-69
2021/12/16 00:58:48;;;;;;;12.93;8.50;;;;;;;0.62;63.91;102563.47;2089093;28;20168;-69
2021/12/16 00:59:50;;;;;;;12.80;8.32;;;;;;;1.30;63.98;102654.25;2089812;28;20159;-69
2021/12/16 01:01:05;;;;;;;12.95;9.02;;;;;;;1.32;63.98;102657.44;2089968;28;20208;-70
2021/12/16 01:03:26;;;;;;;13.15;8.60;;;;;;;0.71;64.33;102578.72;2089964;28;20203;-69
2021/12/16 01:33:48;;;;;;;19.83;11.10;;;;;;;0.94;65.50;102651.22;2089446;28;20626;-69
2021/12/16 01:47:51;;;;;;;20.50;12.45;;;;;;;1.31;64.10;102641.34;2089665;28;20187;-69
2021/12/16 01:50:11;;;;;;;18.27;12.20;;;;;;;1.44;63.93;102640.31;2088978;28;20252;-69
2021/12/16 01:51:23;;;;;;;18.60;12.43;;;;;;;1.48;63.63;102647.50;2089300;28;20244;-69
2021/12/16 01:55:13;;;;;;;20.83;12.18;;;;;;;1.55;63.38;102653.28;2089397;28;20168;-69
2021/12/16 01:57:38;;;;;;;17.67;12.00;;;;;;;1.34;64.11;102632.47;2089546;28;20249;-69
2021/12/16 01:58:39;;;;;;;19.02;12.25;;;;;;;1.40;63.85;102633.88;2089470;28;20153;-69
2021/12/16 01:59:41;;;;;;;20.97;12.97;;;;;;;0.95;64.23;102550.75;2089331;28;20184;-69
2021/12/16 02:00:57;;;;;;;20.10;13.40;;;;;;;1.43;63.55;102627.75;2088883;28;20172;-69
2021/12/16 02:02:04;;;;;;;19.85;12.48;;;;;;;1.37;64.29;102627.13;2089249;28;20186;-69
2021/12/16 02:03:05;;;;;;;20.88;12.25;;;;;;;1.42;64.25;102617.94;2088966;28;20161;-69
2021/12/16 02:04:39;;;;;;;20.15;12.98;;;;;;;1.55;63.71;102617.69;2088390;28;20181;-69
2021/12/16 02:08:50;;;;;;;18.15;11.73;;;;;;;1.58;62.83;102621.69;2089423;28;20577;-69
2021/12/16 02:09:51;;;;;;;17.88;11.82;;;;;;;1.64;63.04;102628.56;2089234;28;20539;-69
2021/12/16 02:12:48;;;;;;;19.52;12.48;;;;;;;1.76;62.67;102636.84;2089112;28;20635;-69
2021/12/16 02:31:22;;;;;;;16.77;11.52;;;;;;;0.84;62.86;102492.88;2088080;28;20207;-69
2021/12/16 02:32:41;;;;;;;19.17;12.02;;;;;;;1.72;62.87;102631.22;2088475;28;20717;-69
2021/12/16 02:34:15;;;;;;;20.05;11.80;;;;;;;1.54;62.55;102605.09;2095746;28;20314;-69
2021/12/16 02:35:29;;;;;;;20.60;12.15;;;;;;;0.79;62.81;102493.06;2092754;28;20239;-69
2021/12/16 02:36:40;;;;;;;23.35;12.75;;;;;;;1.73;62.22;102634.78;2089186;28;20157;-69
2021/12/16 02:37:47;;;;;;;20.67;12.95;;;;;;;1.71;62.53;102628.81;2089216;28;20156;-69
2021/12/16 02:38:50;;;;;;;17.95;12.85;;;;;;;1.63;62.69;102616.78;2089248;28;20206;-69
2021/12/16 02:39:51;;;;;;;18.35;12.60;;;;;;;1.70;63.01;102636.25;2089011;28;20176;-69
2021/12/16 02:40:53;;;;;;;17.97;12.10;;;;;;;1.23;62.98;102557.34;2089254;28;20179;-69
2021/12/16 02:42:13;;;;;;;20.02;13.60;;;;;;;1.65;63.38;102621.94;2089066;28;20176;-69
2021/12/16 02:48:32;;;;;;;18.75;12.68;;;;;;;1.69;63.17;102633.84;2089134;28;20702;-69
2021/12/16 02:49:33;;;;;;;18.70;12.88;;;;;;;1.68;63.11;102637.72;2089179;28;20152;-69
2021/12/16 02:50:33;;;;;;;21.50;13.48;;;;;;;1.63;62.83;102635.97;2089006;28;20579;-69
2021/12/16 02:51:34;;;;;;;19.10;12.97;;;;;;;1.66;63.11;102645.47;2088831;28;20535;-69
2021/12/16 02:52:35;;;;;;;20.63;13.95;;;;;;;1.64;63.34;102640.31;2088409;28;20173;-69
2021/12/16 02:53:40;;;;;;;20.03;13.07;;;;;;;1.62;63.25;102639.03;2087266;28;20263;-69
2021/12/16 02:54:41;;;;;;;20.65;13.10;;;;;;;1.59;63.19;102634.25;2088862;28;20421;-69
2021/12/16 02:55:41;;;;;;;21.83;13.50;;;;;;;1.66;63.31;102637.25;2088383;28;20421;-69
2021/12/16 02:56:42;;;;;;;21.50;13.57;;;;;;;0.88;63.49;102523.13;2088984;28;20200;-69
2021/12/16 02:57:49;;;;;;;21.20;14.03;;;;;;;1.61;63.51;102641.00;2089072;28;20675;-69
2021/12/16 02:58:53;;;;;;;23.50;13.70;;;;;;;1.48;63.24;102620.13;2089035;28;20673;-69
2021/12/16 02:59:54;;;;;;;20.63;13.30;;;;;;;1.57;63.70;102637.31;2089097;28;20227;-69
2021/12/16 03:01:05;;;;;;;21.08;13.27;;;;;;;1.59;63.86;102636.97;2088998;28;20559;-69
2021/12/16 03:02:11;;;;;;;19.55;13.32;;;;;;;0.75;63.29;102508.53;2089061;28;20538;-69
2021/12/16 03:03:11;;;;;;;21.92;13.32;;;;;;;1.54;63.65;102637.19;2096664;28;20195;-69
2021/12/16 03:04:14;;;;;;;19.70;13.37;;;;;;;1.49;63.85;102632.69;2094814;28;20188;-69
2021/12/16 03:05:18;;;;;;;20.58;12.90;;;;;;;1.51;64.04;102637.81;2088775;28;20180;-69
2021/12/16 03:06:19;;;;;;;19.70;13.50;;;;;;;1.52;64.20;102632.03;2088340;28;20174;-69
2021/12/16 03:07:21;;;;;;;21.03;13.47;;;;;;;1.52;64.29;102642.16;2088807;28;20267;-69
2021/12/16 03:08:23;;;;;;;27.67;14.23;;;;;;;1.07;63.85;102567.28;2088804;28;20172;-69
2021/12/16 03:11:16;;;;;;;25.25;13.57;;;;;;;1.48;63.38;102638.50;2087813;28;20204;-69
2021/12/16 03:13:49;;;;;;;24.38;14.13;;;;;;;0.90;64.36;102575.56;2088093;28;20214;-69
2021/12/16 03:14:56;;;;;;;20.92;12.95;;;;;;;1.41;63.84;102633.56;2095814;28;20183;-69
2021/12/16 03:17:13;;;;;;;19.67;13.10;;;;;;;1.36;63.59;102631.00;2088090;28;20181;-69
2021/12/16 03:18:41;;;;;;;21.27;13.50;;;;;;;1.44;64.29;102634.81;2089009;28;20194;-69
2021/12/16 03:19:59;;;;;;;21.33;13.43;;;;;;;1.46;64.01;102633.38;2088870;28;20168;-69
2021/12/16 03:21:17;;;;;;;19.45;12.65;;;;;;;1.36;64.52;102613.75;2088887;28;20160;-69
2021/12/16 03:22:39;;;;;;;20.27;13.00;;;;;;;1.46;63.92;102633.38;2089010;28;20176;-69
2021/12/16 03:28:14;;;;;;;19.73;12.90;;;;;;;1.35;63.69;102610.25;2087238;28;20188;-69
2021/12/16 03:30:52;;;;;;;19.17;12.63;;;;;;;1.55;64.20;102636.03;2088637;28;20197;-69
2021/12/16 03:34:13;;;;;;;23.07;13.83;;;;;;;1.59;64.07;102634.25;2087911;28;20227;-69
2021/12/16 03:35:37;;;;;;;19.23;12.23;;;;;;;1.56;63.68;102627.50;2088013;28;20243;-69
2021/12/16 03:37:16;;;;;;;20.48;13.55;;;;;;;1.48;63.95;102613.88;2087883;28;20218;-69
2021/12/16 03:38:16;;;;;;;19.48;12.82;;;;;;;1.50;64.41;102628.00;2088339;28;20220;-69
2021/12/16 03:39:17;;;;;;;22.20;14.13;;;;;;;1.45;64.63;102628.22;2088744;28;20719;-69
2021/12/16 03:40:18;;;;;;;20.67;13.57;;;;;;;1.48;64.69;102627.56;2096518;28;20172;-69
2021/12/16 03:41:19;;;;;;;20.20;13.63;;;;;;;1.48;64.66;102631.09;2088027;28;20383;-69
2021/12/16 03:42:28;;;;;;;22.42;14.77;;;;;;;1.47;65.11;102629.47;2088446;28;20252;-69
2021/12/16 03:43:29;;;;;;;20.83;13.85;;;;;;;1.15;64.53;102589.09;2088375;28;20185;-69
2021/12/16 03:44:48;;;;;;;24.10;15.25;;;;;;;1.42;64.55;102623.41;2088140;28;20168;-69
2021/12/16 03:47:15;;;;;;;25.13;14.48;;;;;;;1.26;64.27;102604.00;2088150;28;20181;-69
2021/12/16 03:48:25;;;;;;;21.20;13.90;;;;;;;1.40;65.14;102629.22;2088723;28;20656;-69
2021/12/16 03:49:26;;;;;;;23.20;14.55;;;;;;;1.35;65.38;102625.84;2087939;28;20538;-69
2021/12/16 03:50:27;;;;;;;23.20;14.47;;;;;;;0.56;64.89;102505.41;2088652;28;20207;-69
2021/12/16 03:51:46;;;;;;;22.87;14.77;;;;;;;1.36;65.06;102630.19;2088757;28;20803;-69
2021/12/16 03:52:50;;;;;;;22.00;14.23;;;;;;;1.40;64.87;102623.75;2088804;28;20179;-69
2021/12/16 03:53:54;;;;;;;21.35;13.85;;;;;;;1.36;65.18;102624.72;2087865;28;20664;-69
2021/12/16 03:54:56;;;;;;;22.55;14.55;;;;;;;1.37;65.88;102624.41;2088759;28;20206;-69
2021/12/16 03:55:57;;;;;;;22.77;15.13;;;;;;;1.40;65.46;102620.19;2088616;28;20177;-69
2021/12/16 03:57:02;;;;;;;22.63;15.10;;;;;;;1.40;65.50;102625.66;2088693;28;20677;-69
2021/12/16 03:58:02;;;;;;;25.75;15.27;;;;;;;1.33;65.58;102626.19;2088227;28;20654;-69
2021/12/16 03:59:06;;;;;;;25.07;15.43;;;;;;;1.38;65.29;102622.47;2087992;28;20668;-69
2021/12/16 04:00:21;;;;;;;23.73;15.77;;;;;;;1.39;65.40;102621.31;2087400;28;20231;-69
2021/12/16 04:01:25;;;;;;;23.70;15.20;;;;;;;1.43;65.41;102628.53;2088831;28;20240;-69
2021/12/16 04:02:29;;;;;;;26.92;16.23;;;;;;;1.46;65.30;102627.06;2088777;28;20263;-69
2021/12/16 04:03:30;;;;;;;23.95;15.00;;;;;;;1.50;64.88;102625.28;2088631;28;20173;-69
2021/12/16 04:04:31;;;;;;;25.80;15.63;;;;;;;1.51;65.30;102630.44;2089720;28;20176;-69
2021/12/16 04:05:32;;;;;;;23.63;15.75;;;;;;;1.57;64.97;102628.28;2097786;28;20173;-69
2021/12/16 04:06:35;;;;;;;26.40;16.20;;;;;;;1.59;64.84;102626.03;2097885;28;20186;-69
2021/12/16 04:07:37;;;;;;;23.92;15.88;;;;;;;1.30;65.17;102579.50;2090160;28;20180;-69
2021/12/16 04:08:38;;;;;;;24.08;15.75;;;;;;;1.57;64.70;102626.34;2089625;28;20242;-69
2021/12/16 04:09:38;;;;;;;24.50;16.27;;;;;;;0.73;64.61;102477.19;2090367;28;20172;-69
2021/12/16 04:10:45;;;;;;;26.03;16.97;;;;;;;1.35;64.47;102584.78;2089419;28;20251;-69
2021/12/16 04:12:02;;;;;;;25.88;15.88;;;;;;;1.48;64.63;102617.38;2090330;28;20254;-69
2021/12/16 04:13:06;;;;;;;25.52;16.00;;;;;;;1.06;65.14;102547.28;2090342;28;20168;-69
2021/12/16 04:14:10;;;;;;;25.25;15.68;;;;;;;1.48;64.84;102622.88;2089109;28;20183;-69
2021/12/16 04:15:11;;;;;;;23.95;16.58;;;;;;;1.51;65.14;102627.69;2090287;28;20181;-69
2021/12/16 04:16:12;;;;;;;24.27;15.98;;;;;;;1.55;64.80;102625.06;2089587;28;20183;-69
2021/12/16 04:17:14;;;;;;;23.77;15.03;;;;;;;1.57;64.66;102629.09;2089565;28;20195;-69
2021/12/16 04:18:15;;;;;;;24.80;15.50;;;;;;;1.59;64.86;102634.25;2089951;28;20187;-69
2021/12/16 04:19:20;;;;;;;26.93;16.17;;;;;;;1.61;64.82;102632.78;2089631;28;20172;-69
2021/12/16 04:20:23;;;;;;;27.65;16.08;;;;;;;1.65;64.56;102630.16;2090150;28;20187;-69
2021/12/16 04:21:26;;;;;;;25.38;15.82;;;;;;;1.67;64.50;102627.88;2089356;28;20191;-69
2021/12/16 04:22:33;;;;;;;25.23;15.50;;;;;;;1.67;64.25;102636.09;2090220;28;20664;-69
2021/12/16 04:23:34;;;;;;;24.23;15.73;;;;;;;1.67;64.38;102627.88;2089388;28;20163;-69
2021/12/16 04:24:35;;;;;;;26.07;16.07;;;;;;;1.69;64.99;102626.41;2089778;28;20184;-69
2021/12/16 04:25:40;;;;;;;23.27;15.27;;;;;;;1.70;64.64;102627.22;2089502;28;20180;-69
2021/12/16 04:26:42;;;;;;;25.02;16.08;;;;;;;1.72;64.74;102635.91;2089439;28;20175;-69
2021/12/16 04:27:44;;;;;;;24.75;16.13;;;;;;;1.75;64.34;102638.78;2090180;28;20650;-69
2021/12/16 04:28:45;;;;;;;26.38;16.13;;;;;;;1.55;63.13;102594.94;2090054;28;20284;-69
2021/12/16 04:29:45;;;;;;;22.13;15.07;;;;;;;1.78;63.58;102632.63;2089547;28;20657;-69
2021/12/16 04:30:46;;;;;;;26.97;15.90;;;;;;;1.77;63.53;102622.00;2090121;28;20600;-69
2021/12/16 04:31:46;;;;;;;24.97;15.70;;;;;;;1.75;63.80;102624.28;2089215;28;20707;-69
2021/12/16 04:32:48;;;;;;;24.97;16.37;;;;;;;1.73;63.95;102627.34;2090057;28;20176;-69
2021/12/16 04:33:50;;;;;;;25.55;15.88;;;;;;;1.71;64.17;102624.16;2089055;28;20555;-69
2021/12/16 04:34:50;;;;;;;25.35;16.13;;;;;;;1.71;63.88;102626.09;2089968;28;20234;-69
2021/12/16 04:35:51;;;;;;;30.10;16.83;;;;;;;1.52;64.00;102603.81;2090083;28;20295;-69
2021/12/16 04:36:53;;;;;;;25.53;15.80;;;;;;;0.92;63.76;102500.22;2090287;28;20235;-69
2021/12/16 04:37:54;;;;;;;24.48;16.08;;;;;;;1.41;64.01;102575.22;2097642;28;20186;-69
2021/12/16 04:38:55;;;;;;;26.65;15.88;;;;;;;1.20;64.62;102563.47;2097608;28;20254;-69
2021/12/16 04:39:59;;;;;;;23.57;15.47;;;;;;;1.41;65.11;102621.78;2089516;28;20184;-69
2021/12/16 04:40:59;;;;;;;25.02;16.38;;;;;;;1.42;65.13;102624.19;2090035;28;20626;-69
2021/12/16 04:42:01;;;;;;;26.73;16.37;;;;;;;1.46;65.00;102625.16;2090051;28;20552;-69
2021/12/16 04:43:05;;;;;;;26.95;16.67;;;;;;;1.44;65.13;102613.72;2089513;28;20677;-69
2021/12/16 04:44:14;;;;;;;24.52;15.10;;;;;;;1.49;64.74;102627.19;2088964;28;20234;-69
2021/12/16 04:45:18;;;;;;;24.48;15.90;;;;;;;1.51;64.56;102619.47;2089937;28;20176;-69
2021/12/16 04:46:23;;;;;;;25.70;16.38;;;;;;;1.51;64.75;102622.22;2090060;28;20168;-69
2021/12/16 04:47:24;;;;;;;25.48;15.75;;;;;;;1.52;64.93;102623.81;2090160;28;20677;-69
2021/12/16 04:48:25;;;;;;;28.47;16.77;;;;;;;1.47;63.99;102617.75;2089900;28;20618;-69
2021/12/16 04:49:26;;;;;;;25.17;16.73;;;;;;;1.48;64.54;102613.88;2090039;28;20670;-69
2021/12/16 04:50:27;;;;;;;26.45;16.40;;;;;;;1.55;64.51;102622.34;2089300;28;20181;-69
2021/12/16 04:51:32;;;;;;;25.10;16.33;;;;;;;1.57;64.63;102633.75;2089651;28;20547;-69
2021/12/16 04:52:32;;;;;;;24.23;15.48;;;;;;;1.57;64.91;102631.84;2089881;28;20254;-69
2021/12/16 04:53:34;;;;;;;27.73;16.57;;;;;;;1.60;64.42;102633.91;2088759;28;20176;-69
2021/12/16 04:54:35;;;;;;;27.08;16.20;;;;;;;1.63;64.42;102635.19;2089854;28;20177;-69
2021/12/16 04:55:36;;;;;;;27.57;16.67;;;;;;;1.66;63.67;102637.25;2089943;28;20182;-69
2021/12/16 04:56:38;;;;;;;30.13;16.80;;;;;;;1.66;64.37;102649.00;2089945;28;20668;-69
2021/12/16 04:57:39;;;;;;;25.90;16.05;;;;;;;1.55;64.23;102616.88;2089306;28;20176;-68
2021/12/16 04:58:43;;;;;;;23.73;15.45;;;;;;;1.65;64.30;102633.72;2089130;28;20183;-69
2021/12/16 04:59:43;;;;;;;25.02;16.52;;;;;;;1.68;64.11;102633.03;2023768;28;20227;-71
2021/12/16 05:00:44;;;;;;;25.27;15.50;;;;;;;1.70;64.18;102630.78;2063645;28;20326;-71
2021/12/16 05:01:51;;;;;;;23.50;14.83;;;;;;;1.71;64.07;102640.59;2082911;28;20684;-72
2021/12/16 05:02:53;;;;;;;25.20;15.35;;;;;;;1.74;63.64;102628.94;2089277;28;20611;-74
2021/12/16 05:03:56;;;;;;;25.35;16.27;;;;;;;0.82;63.70;102472.47;2087996;28;20197;-73
2021/12/16 05:04:56;;;;;;;26.30;16.77;;;;;;;1.82;63.99;102622.59;2089771;28;20180;-73
2021/12/16 05:05:57;;;;;;;24.07;16.10;;;;;;;1.50;64.08;102571.31;2089914;28;20185;-67
2021/12/16 05:06:58;;;;;;;22.67;15.53;;;;;;;1.56;63.52;102574.63;2089601;28;20263;-67
2021/12/16 05:07:58;;;;;;;25.80;16.07;;;;;;;1.85;63.40;102621.94;2089248;28;20180;-67
2021/12/16 05:08:59;;;;;;;23.87;15.67;;;;;;;1.38;62.92;102545.78;2088631;28;20205;-67
2021/12/16 05:10:11;;;;;;;26.43;15.97;;;;;;;1.69;63.34;102598.22;2089561;28;20181;-68
2021/12/16 05:11:15;;;;;;;24.45;15.38;;;;;;;1.38;65.11;102584.91;2089207;28;20181;-69
2021/12/16 05:12:19;;;;;;;28.35;16.00;;;;;;;1.69;64.23;102620.16;2088942;28;20182;-70
2021/12/16 05:13:23;;;;;;;23.10;14.70;;;;;;;1.65;64.48;102622.75;2087945;28;20169;-69
2021/12/16 05:14:24;;;;;;;21.75;14.95;;;;;;;1.59;64.59;102626.03;2088620;28;20193;-69
2021/12/16 05:15:30;;;;;;;25.23;16.03;;;;;;;1.55;64.93;102625.91;2088284;28;20668;-70
2021/12/16 05:16:31;;;;;;;25.63;15.23;;;;;;;1.62;66.25;102628.06;2089557;28;20199;-70
2021/12/16 05:17:41;;;;;;;25.57;15.33;;;;;;;1.02;66.04;102529.16;2089569;28;20174;-69
2021/12/16 05:18:42;;;;;;;24.48;14.80;;;;;;;1.65;66.72;102627.44;2089893;28;20154;-69
2021/12/16 05:19:49;;;;;;;22.67;14.50;;;;;;;1.60;66.79;102613.91;2089303;28;20172;-71
2021/12/16 05:20:51;;;;;;;25.80;15.75;;;;;;;1.70;65.49;102619.81;2096400;28;20168;-73
2021/12/16 05:24:14;;;;;;;24.17;15.43;;;;;;;1.73;66.07;102610.13;2096675;28;20188;-73
2021/12/16 05:24:37;;;;;;;23.65;15.23;;;;;;;1.75;64.66;102627.84;2089479;28;20161;-74
2021/12/16 05:26:39;;;;;;;22.65;14.20;;;;;;;1.76;64.24;102615.72;2087488;28;20183;-74
2021/12/16 05:27:40;;;;;;;23.80;14.50;;;;;;;1.78;64.64;102616.19;2089468;28;20183;-73
2021/12/16 05:28:44;;;;;;;25.40;15.57;;;;;;;1.84;64.49;102616.78;2086387;28;20208;-73
2021/12/16 05:29:45;;;;;;;26.52;16.45;;;;;;;1.83;64.07;102601.50;2081237;28;20169;-66
2021/12/16 05:30:46;;;;;;;25.20;16.87;;;;;;;1.89;63.69;102614.63;2086421;28;20180;-69
2021/12/16 05:31:47;;;;;;;32.90;20.37;;;;;;;1.91;63.55;102617.88;2088885;28;20181;-69
2021/12/16 05:32:47;;;;;;;26.50;17.20;;;;;;;1.92;63.36;102610.44;2088812;28;20180;-69
2021/12/16 05:33:49;;;;;;;25.90;15.70;;;;;;;1.18;63.19;102500.81;2088415;28;20176;-69
2021/12/16 05:34:49;;;;;;;25.15;16.25;;;;;;;1.92;63.01;102618.66;2089541;28;20173;-70
2021/12/16 05:35:52;;;;;;;27.07;14.90;;;;;;;1.73;63.03;102613.66;2088605;28;20180;-70
2021/12/16 05:36:52;;;;;;;26.70;16.02;;;;;;;1.69;63.72;102615.44;2089275;28;20205;-70
2021/12/16 05:37:54;;;;;;;28.67;16.30;;;;;;;1.64;63.94;102601.16;2089324;28;20489;-70
2021/12/16 05:38:55;;;;;;;36.33;22.73;;;;;;;1.78;63.62;102615.41;2088527;28;20768;-70
2021/12/16 05:39:55;;;;;;;25.60;15.85;;;;;;;1.78;63.78;102626.38;2091076;28;20521;-70
2021/12/16 05:40:57;;;;;;;23.63;16.47;;;;;;;1.80;63.69;102621.34;2091274;28;20206;-70
2021/12/16 05:41:58;;;;;;;35.60;21.42;;;;;;;1.84;63.53;102619.53;2088544;28;20177;-69
2021/12/16 05:43:02;;;;;;;33.63;20.00;;;;;;;1.42;63.85;102558.47;2086762;28;20183;-69
2021/12/16 05:44:03;;;;;;;50.90;26.00;;;;;;;1.06;63.17;102489.03;2084856;28;20192;-69
2021/12/16 05:45:06;;;;;;;42.33;26.75;;;;;;;1.84;63.68;102612.09;2086556;28;20474;-70
2021/12/16 05:46:08;;;;;;;36.95;22.13;;;;;;;1.78;64.02;102610.72;2087063;28;20683;-70
2021/12/16 05:47:09;;;;;;;32.90;21.15;;;;;;;1.83;63.19;102617.94;2087746;28;20183;-69
2021/12/16 05:48:13;;;;;;;34.30;21.57;;;;;;;1.74;63.23;102611.72;2082008;28;20208;-69
2021/12/16 05:49:14;;;;;;;31.40;18.65;;;;;;;1.74;63.33;102615.25;2086024;28;20727;-70
2021/12/16 05:50:15;;;;;;;30.57;19.57;;;;;;;1.79;63.51;102619.75;2080251;28;20706;-70
2021/12/16 05:51:21;;;;;;;31.73;19.03;;;;;;;1.82;63.33;102622.59;2086700;28;20266;-70
2021/12/16 05:52:22;;;;;;;31.35;17.45;;;;;;;1.82;63.19;102611.66;2087088;28;20173;-70
2021/12/16 05:53:23;;;;;;;28.40;17.03;;;;;;;1.09;63.18;102499.31;2085332;28;20176;-70
2021/12/16 05:54:23;;;;;;;36.13;19.57;;;;;;;1.51;63.20;102567.44;2087636;28;20188;-70
2021/12/16 05:55:24;;;;;;;27.53;18.30;;;;;;;1.81;63.13;102612.78;2088140;28;20411;-70
2021/12/16 05:56:25;;;;;;;24.95;16.30;;;;;;;1.82;63.08;102619.88;2084354;28;20188;-70
2021/12/16 05:57:26;;;;;;;30.03;20.77;;;;;;;1.84;63.05;102611.31;2085136;28;20176;-70
2021/12/16 05:58:27;;;;;;;35.75;20.05;;;;;;;1.83;63.21;102609.72;2083964;28;20226;-70
2021/12/16 05:59:28;;;;;;;30.50;19.65;;;;;;;1.36;63.17;102546.13;2076987;28;20199;-71
2021/12/16 06:00:40;;;;;;;28.70;18.13;;;;;;;1.85;64.19;102618.41;2086035;28;20177;-70
2021/12/16 06:01:43;;;;;;;35.42;23.10;;;;;;;1.77;63.04;102591.84;2081409;28;20184;-71
2021/12/16 06:02:44;;;;;;;23.67;16.13;;;;;;;1.89;62.94;102614.63;2085175;28;20811;-70
2021/12/16 06:03:46;;;;;;;26.75;16.83;;;;;;;1.83;62.76;102615.97;2088542;28;20178;-70
2021/12/16 06:04:50;;;;;;;31.45;19.40;;;;;;;1.83;63.38;102617.94;2085572;28;20200;-70
2021/12/16 06:05:52;;;;;;;31.05;20.45;;;;;;;1.75;62.88;102613.31;2087822;28;20188;-70
2021/12/16 06:06:52;;;;;;;46.15;28.60;;;;;;;1.81;62.76;102615.53;2085191;28;20564;-70
2021/12/16 06:07:53;;;;;;;40.13;24.77;;;;;;;1.81;62.74;102607.31;2088135;28;20199;-71
2021/12/16 06:08:55;;;;;;;29.63;18.93;;;;;;;1.83;63.13;102612.47;2088188;28;20203;-69
2021/12/16 06:09:56;;;;;;;29.73;19.90;;;;;;;1.23;62.54;102538.97;2088343;28;20568;-70
2021/12/16 06:12:07;;;;;;;24.40;15.82;;;;;;;1.78;62.66;102604.44;2086127;28;20173;-69
2021/12/16 06:13:08;;;;;;;27.00;17.05;;;;;;;1.77;62.95;102600.88;2087940;28;20175;-70
2021/12/16 06:14:26;;;;;;;23.38;16.33;;;;;;;1.79;63.14;102601.34;2088329;28;20177;-70
2021/12/16 06:22:18;;;;;;;28.13;17.95;;;;;;;1.73;63.08;102594.47;2088356;28;20180;-70
2021/12/16 06:22:41;;;;;;;28.00;16.77;;;;;;;1.69;63.01;102604.50;2087693;28;20673;-70
2021/12/16 06:26:44;;;;;;;27.15;16.13;;;;;;;1.76;63.23;102609.44;2080470;28;20181;-70
2021/12/16 06:27:49;;;;;;;25.35;16.55;;;;;;;1.74;63.42;102617.22;2087459;28;20226;-70
2021/12/16 06:28:49;;;;;;;25.42;16.70;;;;;;;1.75;62.97;102607.84;2087767;28;20200;-70
2021/12/16 06:29:50;;;;;;;28.80;16.60;;;;;;;0.93;62.91;102470.94;2085845;28;20574;-70
2021/12/16 06:30:50;;;;;;;30.00;17.53;;;;;;;1.75;63.57;102610.59;2088071;28;20564;-70
2021/12/16 06:31:51;;;;;;;26.43;16.60;;;;;;;1.69;63.56;102612.72;2087302;28;20654;-70
2021/12/16 06:32:52;;;;;;;25.70;17.00;;;;;;;1.59;63.65;102613.09;2087960;28;20177;-70
2021/12/16 06:33:53;;;;;;;24.38;16.42;;;;;;;1.61;63.69;102610.03;2086794;28;20909;-70
2021/12/16 06:34:55;;;;;;;22.30;16.03;;;;;;;1.20;64.84;102579.88;2087165;28;20637;-70
2021/12/16 06:35:55;;;;;;;25.05;16.65;;;;;;;1.11;64.74;102574.47;2084613;28;20948;-70
2021/12/16 06:36:56;;;;;;;24.57;16.10;;;;;;;1.33;65.00;102606.22;2086488;28;20188;-70
2021/12/16 06:37:57;;;;;;;24.77;16.50;;;;;;;1.31;65.23;102609.28;2087997;28;20275;-70
2021/12/16 06:38:57;;;;;;;24.13;16.30;;;;;;;0.58;65.34;102492.25;2088432;28;20241;-70
2021/12/16 06:39:58;;;;;;;21.63;14.90;;;;;;;0.96;65.31;102542.22;2089513;28;20180;-70
2021/12/16 06:40:58;;;;;;;23.70;15.77;;;;;;;1.41;65.15;102610.84;2089029;28;20176;-70
2021/12/16 06:41:59;;;;;;;26.77;16.87;;;;;;;1.05;65.45;102575.00;2088159;28;20279;-70
2021/12/16 06:43:02;;;;;;;25.23;16.33;;;;;;;1.40;65.56;102612.78;2088412;28;20685;-70
2021/12/16 06:44:16;;;;;;;24.08;15.80;;;;;;;0.87;64.95;102510.56;2088356;28;20230;-70
2021/12/16 06:45:23;;;;;;;25.70;15.27;;;;;;;1.55;65.30;102614.13;2088197;28;20168;-70
2021/12/16 06:46:31;;;;;;;24.15;15.73;;;;;;;1.41;65.47;102611.66;2090288;28;20177;-70
2021/12/16 06:47:42;;;;;;;22.75;16.08;;;;;;;1.35;66.11;102615.72;2089086;28;20196;-70
2021/12/16 06:48:46;;;;;;;23.58;15.50;;;;;;;1.32;66.00;102601.91;2088484;28;20192;-70
2021/12/16 06:49:50;;;;;;;22.20;15.77;;;;;;;1.33;66.16;102617.97;2087632;28;20326;-70
2021/12/16 06:51:19;;;;;;;24.55;14.77;;;;;;;1.26;66.06;102598.53;2087785;28;20180;-70
2021/12/16 06:52:15;;;;;;;21.50;14.43;;;;;;;1.37;66.70;102616.19;2087240;28;20195;-70
2021/12/16 06:53:25;;;;;;;22.73;15.75;;;;;;;1.24;66.46;102609.03;2090799;28;20329;-70
2021/12/16 06:54:36;;;;;;;25.90;15.63;;;;;;;0.73;66.75;102548.31;2091117;28;20571;-70
2021/12/16 06:57:38;;;;;;;24.60;16.25;;;;;;;1.31;67.43;102613.97;2087088;28;20179;-70
2021/12/16 06:58:22;;;;;;;24.77;16.05;;;;;;;1.25;67.39;102612.56;2084273;28;20192;-70
2021/12/16 06:59:33;;;;;;;24.80;15.38;;;;;;;1.24;66.86;102611.78;2086697;28;20610;-70
2021/12/16 07:00:40;;;;;;;23.85;15.10;;;;;;;1.24;67.72;102616.44;2087563;28;20160;-70
2021/12/16 07:01:48;;;;;;;23.55;14.85;;;;;;;1.29;67.62;102617.06;2080068;28;20223;-70
2021/12/16 07:03:05;;;;;;;22.38;15.27;;;;;;;1.35;67.15;102612.16;2084498;28;20168;-70
2021/12/16 07:04:17;;;;;;;22.27;14.75;;;;;;;1.35;67.52;102618.47;2087778;28;20173;-70
2021/12/16 07:05:19;;;;;;;22.17;14.15;;;;;;;1.39;67.22;102618.59;2088299;28;20652;-70
2021/12/16 07:06:25;;;;;;;21.80;15.15;;;;;;;1.39;67.80;102616.66;2087726;28;20610;-70
2021/12/16 07:07:26;;;;;;;23.85;15.70;;;;;;;1.42;67.45;102621.47;2088187;28;20587;-69
2021/12/16 07:08:26;;;;;;;21.17;14.17;;;;;;;1.40;67.67;102620.19;2101887;28;20229;-70
2021/12/16 07:09:27;;;;;;;23.23;14.80;;;;;;;1.32;68.03;102610.91;2094263;28;20634;-70
2021/12/16 07:10:29;;;;;;;25.30;16.00;;;;;;;1.39;67.83;102607.63;2088061;28;20255;-70
2021/12/16 07:11:30;;;;;;;22.73;15.02;;;;;;;1.45;67.52;102615.34;2088151;28;20176;-70
2021/12/16 07:12:37;;;;;;;23.73;14.77;;;;;;;1.56;67.57;102623.94;2087959;28;20180;-70
2021/12/16 07:13:41;;;;;;;24.75;15.13;;;;;;;1.66;67.34;102613.41;2088619;28;20179;-70
2021/12/16 07:14:42;;;;;;;23.73;15.40;;;;;;;1.67;67.17;102617.72;2087862;28;20665;-70
2021/12/16 07:15:43;;;;;;;33.37;16.07;;;;;;;1.69;66.89;102622.88;2087496;28;20855;-70